Time;durP1;ratioP1;P1;durP2;ratioP2;P2;SDS_P1;SDS_P2;PMS_P1;PMS_P2;Temp;Humidity;BMP_temperature;BMP_pressure;BME280_temperature;BME280_humidity;BME280_pressure;Samples;Min_cycle;Max_cycle;Signal;HPM_P1;HPM_P2
2021/09/20 00:02:21;;;;;;;12.07;6.18;;;22.80;99.90;;;;;;5118025;27;20483;-67
2021/09/20 00:04:46;;;;;;;6.75;6.05;;;22.80;99.90;;;;;;5132417;27;20039;-69
2021/09/20 00:07:12;;;;;;;7.35;6.57;;;22.80;99.90;;;;;;5132800;27;20070;-71
2021/09/20 00:09:38;;;;;;;7.90;6.18;;;22.80;99.90;;;;;;5133140;27;20078;-69
2021/09/20 00:12:04;;;;;;;6.72;6.03;;;22.80;99.90;;;;;;5132866;27;20478;-69
2021/09/20 00:14:29;;;;;;;7.15;6.45;;;22.80;99.90;;;;;;5132160;27;20466;-67
2021/09/20 00:16:55;;;;;;;6.68;5.97;;;22.80;99.90;;;;;;5132108;27;20362;-68
2021/09/20 00:19:21;;;;;;;6.55;5.78;;;22.80;99.90;;;;;;5133080;27;20042;-68
2021/09/20 00:21:46;;;;;;;7.50;5.65;;;22.80;99.90;;;;;;5132412;27;20015;-66
2021/09/20 00:24:12;;;;;;;8.45;5.97;;;22.80;99.90;;;;;;5132706;27;20023;-67
2021/09/20 00:26:38;;;;;;;9.73;6.57;;;22.80;99.90;;;;;;5132133;27;20023;-68
2021/09/20 00:29:03;;;;;;;6.88;5.57;;;22.80;99.90;;;;;;5131822;27;20463;-67
2021/09/20 00:31:29;;;;;;;6.78;5.78;;;22.80;99.90;;;;;;5132796;27;20474;-68
2021/09/20 00:33:54;;;;;;;6.60;6.00;;;22.80;99.90;;;;;;5132205;27;20031;-68
2021/09/20 00:36:20;;;;;;;6.05;5.45;;;22.80;99.90;;;;;;5132863;27;20023;-68
2021/09/20 00:38:46;;;;;;;6.15;5.55;;;22.80;99.90;;;;;;5132122;27;20019;-68
2021/09/20 00:41:11;;;;;;;6.60;5.93;;;22.80;99.90;;;;;;5132682;27;20382;-69
2021/09/20 00:43:37;;;;;;;7.45;6.65;;;22.80;99.90;;;;;;5132211;27;20080;-69
2021/09/20 00:46:07;;;;;;;6.18;5.57;;;22.80;99.90;;;;;;5132902;27;20021;-70
2021/09/20 00:48:33;;;;;;;6.70;5.93;;;22.80;99.90;;;;;;5132801;27;20047;-69
2021/09/20 00:50:59;;;;;;;5.80;5.25;;;22.80;99.90;;;;;;5132598;27;20015;-70
2021/09/20 00:53:25;;;;;;;6.45;5.32;;;22.80;99.90;;;;;;5132442;27;20035;-69
2021/09/20 00:55:50;;;;;;;7.53;5.93;;;22.80;99.90;;;;;;5132146;27;20027;-71
2021/09/20 00:58:16;;;;;;;6.10;5.50;;;22.80;99.90;;;;;;5132360;27;20047;-70
2021/09/20 01:00:42;;;;;;;6.10;5.32;;;22.80;99.90;;;;;;5131609;28;20038;-69
2021/09/20 01:03:07;;;;;;;8.65;6.55;;;22.80;99.90;;;;;;5132542;27;20031;-69
2021/09/20 01:05:33;;;;;;;6.95;6.25;;;22.80;99.90;;;;;;5132948;28;20429;-70
2021/09/20 01:07:59;;;;;;;6.53;5.80;;;22.80;99.90;;;;;;5131564;28;20039;-70
2021/09/20 01:10:25;;;;;;;7.00;5.70;;;22.80;99.90;;;;;;5132036;28;20385;-69
2021/09/20 01:12:51;;;;;;;6.63;5.93;;;22.80;99.90;;;;;;5132085;28;20491;-70
2021/09/20 01:15:16;;;;;;;6.00;5.43;;;22.80;99.90;;;;;;5131731;28;20027;-71
2021/09/20 01:17:42;;;;;;;6.97;5.82;;;22.80;99.90;;;;;;5131748;27;20034;-70
2021/09/20 01:20:11;;;;;;;6.18;5.57;;;22.80;99.90;;;;;;5132308;28;20046;-70
2021/09/20 01:22:37;;;;;;;8.70;5.35;;;22.80;99.90;;;;;;5131974;27;20031;-70
2021/09/20 01:25:05;;;;;;;6.60;5.18;;;22.80;99.90;;;;;;5132256;27;20106;-71
2021/09/20 01:27:30;;;;;;;5.78;5.28;;;22.80;99.90;;;;;;5132257;28;20039;-71
2021/09/20 01:29:56;;;;;;;6.05;5.45;;;22.80;99.90;;;;;;5132020;28;20023;-71
2021/09/20 01:32:22;;;;;;;7.03;4.75;;;22.80;99.90;;;;;;5131990;28;20106;-70
2021/09/20 01:34:47;;;;;;;7.25;5.47;;;22.80;99.90;;;;;;5132059;27;20034;-70
2021/09/20 01:37:13;;;;;;;5.57;4.90;;;22.80;99.90;;;;;;5131973;28;20031;-69
2021/09/20 01:39:40;;;;;;;5.72;5.13;;;22.80;99.90;;;;;;5133100;27;20042;-69
2021/09/20 01:42:06;;;;;;;5.47;4.90;;;22.80;99.90;;;;;;5134744;27;20409;-66
2021/09/20 01:44:32;;;;;;;6.10;5.38;;;22.80;99.90;;;;;;5136235;27;20744;-70
2021/09/20 01:46:58;;;;;;;5.82;5.28;;;22.80;99.90;;;;;;5134366;27;20035;-70
2021/09/20 01:49:25;;;;;;;5.97;5.38;;;22.80;99.90;;;;;;5136050;27;20115;-70
2021/09/20 01:51:52;;;;;;;6.60;4.93;;;22.80;99.90;;;;;;5135496;27;20038;-70
2021/09/20 01:54:18;;;;;;;6.82;5.18;;;22.80;99.90;;;;;;5135319;27;20474;-71
2021/09/20 01:56:44;;;;;;;8.07;4.85;;;22.80;99.90;;;;;;5135637;27;20027;-71
2021/09/20 01:59:09;;;;;;;9.48;4.95;;;22.80;99.90;;;;;;5135704;27;20018;-66
2021/09/20 02:01:36;;;;;;;5.43;4.70;;;22.80;99.90;;;;;;5135856;27;20420;-70
2021/09/20 02:04:02;;;;;;;4.90;4.40;;;22.80;99.90;;;;;;5136089;27;20051;-70
2021/09/20 02:06:28;;;;;;;5.35;4.85;;;22.80;99.90;;;;;;5135159;27;20106;-71
2021/09/20 02:08:54;;;;;;;5.50;4.72;;;22.80;99.90;;;;;;5133629;27;20546;-70
2021/09/20 02:11:22;;;;;;;4.90;4.40;;;22.80;99.90;;;;;;5119116;27;20026;-69
2021/09/20 02:13:48;;;;;;;7.30;4.43;;;22.80;99.90;;;;;;5134110;27;20030;-70
2021/09/20 02:16:14;;;;;;;4.78;4.28;;;22.70;99.90;;;;;;5135153;27;20019;-70
2021/09/20 02:18:41;;;;;;;5.22;4.60;;;22.80;99.90;;;;;;5134913;27;20036;-71
2021/09/20 02:21:08;;;;;;;4.53;4.13;;;22.70;99.90;;;;;;5135586;27;20065;-68
2021/09/20 02:23:35;;;;;;;4.60;4.20;;;22.80;99.90;;;;;;5135088;27;20027;-69
2021/09/20 02:26:02;;;;;;;4.78;4.28;;;22.70;99.90;;;;;;5135276;27;20058;-69
2021/09/20 02:28:28;;;;;;;4.68;4.20;;;22.70;99.90;;;;;;5134950;27;20035;-69
2021/09/20 02:30:54;;;;;;;4.47;4.07;;;22.70;99.90;;;;;;5134830;27;20019;-69
2021/09/20 02:33:19;;;;;;;4.90;4.40;;;22.80;99.90;;;;;;5135243;27;20023;-69
2021/09/20 02:35:45;;;;;;;4.97;4.25;;;22.70;99.90;;;;;;5134820;27;20489;-69
2021/09/20 02:38:11;;;;;;;4.72;4.28;;;22.70;99.90;;;;;;5134666;27;20021;-69
2021/09/20 02:40:37;;;;;;;4.72;4.20;;;22.70;99.90;;;;;;5134435;27;20031;-70
2021/09/20 02:43:03;;;;;;;4.82;4.10;;;22.70;99.90;;;;;;5135055;27;20019;-70
2021/09/20 02:45:30;;;;;;;4.57;4.10;;;22.70;99.90;;;;;;5135039;27;20034;-70
2021/09/20 02:47:56;;;;;;;4.22;3.88;;;22.70;99.90;;;;;;5133998;27;20060;-70
2021/09/20 02:50:22;;;;;;;4.90;4.40;;;22.70;99.90;;;;;;5134455;27;20023;-69
2021/09/20 02:52:47;;;;;;;4.65;4.15;;;22.70;99.90;;;;;;5134192;27;20023;-69
2021/09/20 02:55:13;;;;;;;4.32;3.92;;;22.70;99.90;;;;;;5134425;27;20027;-69
2021/09/20 02:57:40;;;;;;;5.03;3.78;;;22.70;99.90;;;;;;5133997;27;20457;-69
2021/09/20 03:00:07;;;;;;;4.55;4.15;;;22.70;99.90;;;;;;5134629;27;20470;-68
2021/09/20 03:02:33;;;;;;;6.43;4.20;;;22.70;99.90;;;;;;5134650;27;20454;-69
2021/09/20 03:04:59;;;;;;;4.68;4.22;;;22.70;99.90;;;;;;5133857;27;20055;-70
2021/09/20 03:07:25;;;;;;;4.70;3.78;;;22.70;99.90;;;;;;5134144;27;20042;-69
2021/09/20 03:09:50;;;;;;;4.47;4.07;;;22.70;99.90;;;;;;5133698;27;20023;-69
2021/09/20 03:12:16;;;;;;;4.80;4.10;;;22.70;99.90;;;;;;5134287;27;20038;-69
2021/09/20 03:14:42;;;;;;;5.03;4.20;;;22.70;99.90;;;;;;5133732;27;20035;-69
2021/09/20 03:17:07;;;;;;;4.50;3.97;;;22.70;99.90;;;;;;5134240;27;20027;-71
2021/09/20 03:19:33;;;;;;;4.22;3.65;;;22.70;99.90;;;;;;5134380;27;20020;-70
2021/09/20 03:21:59;;;;;;;4.55;4.05;;;22.60;99.90;;;;;;5133903;27;20099;-70
2021/09/20 03:24:24;;;;;;;4.20;3.80;;;22.60;99.90;;;;;;5133889;27;20090;-69
2021/09/20 03:26:52;;;;;;;4.22;3.83;;;22.70;99.90;;;;;;5133739;27;20031;-69
2021/09/20 03:29:18;;;;;;;4.22;3.83;;;22.70;99.90;;;;;;5133707;27;20102;-69
2021/09/20 03:31:44;;;;;;;4.25;3.85;;;22.70;99.90;;;;;;5133643;27;20026;-69
2021/09/20 03:34:09;;;;;;;4.32;3.92;;;22.60;99.90;;;;;;5133943;27;20023;-69
2021/09/20 03:36:35;;;;;;;3.97;3.53;;;22.60;99.90;;;;;;5134240;27;20016;-69
2021/09/20 03:39:02;;;;;;;5.68;3.80;;;22.60;99.90;;;;;;5133665;27;20117;-68
2021/09/20 03:41:27;;;;;;;3.92;3.30;;;22.60;99.90;;;;;;5133722;27;20069;-69
2021/09/20 03:43:53;;;;;;;4.28;3.88;;;22.60;99.90;;;;;;5132142;27;20030;-69
2021/09/20 03:46:18;;;;;;;4.00;3.60;;;22.60;99.90;;;;;;5133796;27;20051;-69
2021/09/20 03:48:44;;;;;;;3.78;3.40;;;22.60;99.90;;;;;;5133201;27;20497;-69
2021/09/20 03:51:10;;;;;;;4.22;3.83;;;22.60;99.90;;;;;;5133168;27;20094;-68
2021/09/20 03:53:35;;;;;;;4.10;3.53;;;22.60;99.90;;;;;;5133056;27;20110;-67
2021/09/20 03:56:02;;;;;;;4.05;3.65;;;22.60;99.90;;;;;;5134023;27;20072;-69
2021/09/20 03:58:28;;;;;;;4.75;3.50;;;22.60;99.90;;;;;;5133246;27;20151;-68
2021/09/20 04:00:53;;;;;;;6.15;3.65;;;22.60;99.90;;;;;;5133095;27;20105;-69
2021/09/20 04:03:19;;;;;;;4.22;3.22;;;22.60;99.90;;;;;;5132627;27;20102;-69
2021/09/20 04:05:45;;;;;;;3.33;3.03;;;22.60;99.90;;;;;;5132801;27;20031;-68
2021/09/20 04:08:14;;;;;;;3.75;3.45;;;22.60;99.90;;;;;;5132658;27;20046;-69
2021/09/20 04:10:40;;;;;;;3.70;3.40;;;22.50;99.90;;;;;;5132115;27;20475;-68
2021/09/20 04:13:06;;;;;;;3.70;3.40;;;22.60;99.90;;;;;;5133198;27;20077;-68
2021/09/20 04:15:32;;;;;;;3.75;3.45;;;22.60;99.90;;;;;;5133617;27;20459;-68
2021/09/20 04:17:57;;;;;;;3.50;3.20;;;22.60;99.90;;;;;;5132952;27;20027;-70
2021/09/20 04:20:23;;;;;;;3.47;3.17;;;22.50;99.90;;;;;;5131237;27;20019;-70
2021/09/20 04:22:49;;;;;;;3.55;3.25;;;22.50;99.90;;;;;;5133021;27;20356;-69
2021/09/20 04:25:15;;;;;;;3.40;3.10;;;22.50;99.90;;;;;;5132794;27;20503;-68
2021/09/20 04:27:41;;;;;;;3.50;3.17;;;22.50;99.90;;;;;;5132469;27;20076;-68
2021/09/20 04:30:07;;;;;;;3.40;3.10;;;22.50;99.90;;;;;;5132936;27;20027;-69
2021/09/20 04:32:33;;;;;;;3.38;3.08;;;22.50;99.90;;;;;;5132925;27;20019;-70
2021/09/20 04:34:59;;;;;;;4.25;3.45;;;22.50;99.90;;;;;;5132332;27;20505;-70
2021/09/20 04:37:24;;;;;;;3.70;3.40;;;22.50;99.90;;;;;;5130739;27;20031;-69
2021/09/20 04:39:50;;;;;;;3.70;3.40;;;22.50;99.90;;;;;;5131792;27;20094;-69
2021/09/20 04:42:16;;;;;;;3.10;2.80;;;22.50;99.90;;;;;;5132088;27;20055;-69
2021/09/20 04:44:42;;;;;;;4.78;3.17;;;22.50;99.90;;;;;;5132487;27;20020;-68
2021/09/20 04:47:07;;;;;;;3.80;3.28;;;22.50;99.90;;;;;;5132557;27;20027;-69
2021/09/20 04:49:33;;;;;;;3.80;3.40;;;22.50;99.90;;;;;;5132721;27;20038;-69
2021/09/20 04:51:59;;;;;;;3.33;3.03;;;22.50;99.90;;;;;;5132183;27;20019;-69
2021/09/20 04:54:25;;;;;;;3.50;3.20;;;22.50;99.90;;;;;;5131742;27;20034;-70
2021/09/20 04:56:51;;;;;;;3.85;3.08;;;22.50;99.90;;;;;;5132338;27;20039;-70
2021/09/20 04:59:16;;;;;;;3.67;3.33;;;22.50;99.90;;;;;;5132489;27;20053;-70
2021/09/20 05:01:42;;;;;;;3.58;3.25;;;22.50;99.90;;;;;;5131930;28;20417;-71
2021/09/20 05:04:09;;;;;;;3.58;3.10;;;22.40;99.90;;;;;;5131843;28;20433;-69
2021/09/20 05:06:35;;;;;;;3.83;3.53;;;22.50;99.90;;;;;;5132567;27;20023;-68
2021/09/20 05:09:03;;;;;;;4.03;3.67;;;22.40;99.90;;;;;;5132597;28;20125;-69
2021/09/20 05:11:29;;;;;;;4.03;3.63;;;22.50;99.90;;;;;;5131932;27;20067;-67
2021/09/20 05:13:54;;;;;;;4.00;3.58;;;22.40;99.90;;;;;;5133740;27;20470;-68
2021/09/20 05:16:20;;;;;;;3.60;3.30;;;22.40;99.90;;;;;;5136479;27;20030;-69
2021/09/20 05:18:45;;;;;;;3.53;3.22;;;22.40;99.90;;;;;;5136436;27;20023;-69
2021/09/20 05:21:11;;;;;;;3.55;3.25;;;22.40;99.90;;;;;;5136218;27;20035;-68
2021/09/20 05:23:36;;;;;;;3.78;3.47;;;22.40;99.90;;;;;;5136062;27;20563;-69
2021/09/20 05:26:03;;;;;;;3.92;3.53;;;22.40;99.90;;;;;;5136319;27;20015;-70
2021/09/20 05:28:28;;;;;;;3.55;3.25;;;22.40;99.90;;;;;;5136389;27;20165;-69
2021/09/20 05:30:54;;;;;;;4.43;3.83;;;22.40;99.90;;;;;;5135246;27;20103;-68
2021/09/20 05:33:20;;;;;;;3.78;3.35;;;22.40;99.90;;;;;;5136321;27;20038;-68
2021/09/20 05:35:46;;;;;;;4.78;3.28;;;22.40;99.90;;;;;;5135582;27;20023;-69
2021/09/20 05:38:14;;;;;;;3.55;3.17;;;22.40;99.90;;;;;;5136006;27;20030;-70
2021/09/20 05:40:42;;;;;;;3.78;3.40;;;22.40;99.90;;;;;;5135085;27;20019;-69
2021/09/20 05:43:08;;;;;;;3.70;3.30;;;22.40;99.90;;;;;;5135579;27;20038;-68
2021/09/20 05:45:33;;;;;;;4.00;3.60;;;22.40;99.90;;;;;;5135818;27;20027;-69
2021/09/20 05:48:00;;;;;;;3.92;3.45;;;22.40;99.90;;;;;;5135717;27;20038;-68
2021/09/20 05:50:27;;;;;;;3.47;3.17;;;22.40;99.90;;;;;;5135684;27;20402;-69
2021/09/20 05:52:53;;;;;;;3.38;3.08;;;22.40;99.90;;;;;;5135321;27;20016;-69
2021/09/20 05:55:20;;;;;;;5.78;3.85;;;22.40;99.90;;;;;;5119378;27;20028;-67
2021/09/20 05:57:46;;;;;;;5.03;3.50;;;22.30;99.90;;;;;;5115245;27;20356;-69
2021/09/20 06:00:13;;;;;;;3.92;3.40;;;22.40;99.90;;;;;;5130002;27;20030;-68
2021/09/20 06:02:39;;;;;;;8.77;3.70;;;22.30;99.90;;;;;;5135131;27;20428;-69
2021/09/20 06:05:06;;;;;;;11.05;9.00;;;22.30;99.90;;;;;;5134350;27;20046;-67
2021/09/20 06:07:32;;;;;;;13.57;9.85;;;22.30;99.90;;;;;;5133712;27;20118;-68
2021/09/20 06:09:58;;;;;;;18.27;12.43;;;22.30;99.90;;;;;;5133450;27;20111;-67
2021/09/20 06:12:23;;;;;;;16.75;13.25;;;22.20;99.90;;;;;;5133998;27;20467;-68
2021/09/20 06:14:49;;;;;;;16.13;13.10;;;22.20;99.90;;;;;;5134936;27;20027;-67
2021/09/20 06:17:14;;;;;;;19.55;14.48;;;22.20;99.90;;;;;;5134845;27;20027;-69
2021/09/20 06:19:40;;;;;;;19.30;15.55;;;22.10;99.90;;;;;;5135197;27;20027;-68
2021/09/20 06:22:06;;;;;;;19.30;14.57;;;22.10;99.90;;;;;;5134516;27;20023;-67
2021/09/20 06:24:31;;;;;;;16.58;13.15;;;22.10;99.90;;;;;;5134265;27;20027;-67
2021/09/20 06:26:57;;;;;;;18.40;15.57;;;22.00;99.90;;;;;;5134346;27;20068;-67
2021/09/20 06:29:23;;;;;;;19.90;16.35;;;22.00;99.90;;;;;;5135225;27;20141;-66
2021/09/20 06:31:48;;;;;;;18.00;15.18;;;22.00;99.90;;;;;;5134845;27;20054;-66
2021/09/20 06:34:14;;;;;;;18.42;15.52;;;21.90;99.90;;;;;;5135359;27;20091;-67
2021/09/20 06:36:40;;;;;;;20.50;15.75;;;21.90;99.90;;;;;;5134983;27;20016;-67
2021/09/20 06:39:08;;;;;;;18.58;15.27;;;21.80;99.90;;;;;;5128121;27;20044;-67
2021/09/20 06:41:34;;;;;;;18.52;15.05;;;21.80;99.90;;;;;;5114479;27;20027;-66
2021/09/20 06:44:02;;;;;;;18.27;15.32;;;21.80;99.90;;;;;;5114124;27;20027;-66
2021/09/20 06:46:30;;;;;;;18.17;14.73;;;21.70;99.90;;;;;;5129803;27;20025;-66
2021/09/20 06:48:57;;;;;;;18.08;14.25;;;21.70;99.90;;;;;;5121983;27;20915;-67
2021/09/20 06:51:22;;;;;;;17.63;13.77;;;21.70;99.90;;;;;;5131634;27;20030;-67
2021/09/20 06:53:49;;;;;;;15.77;12.63;;;21.70;99.90;;;;;;5122365;27;20056;-66
2021/09/20 06:56:15;;;;;;;14.50;11.65;;;21.70;99.90;;;;;;5134853;27;20058;-66
2021/09/20 06:58:40;;;;;;;14.30;11.43;;;21.70;99.90;;;;;;5129970;27;20047;-67
2021/09/20 07:01:06;;;;;;;12.90;11.18;;;21.70;99.90;;;;;;5113984;28;20467;-67
2021/09/20 07:03:32;;;;;;;11.95;9.98;;;21.70;99.90;;;;;;5112932;28;20032;-67
2021/09/20 07:05:57;;;;;;;12.18;9.75;;;21.70;99.90;;;;;;5113748;28;20023;-67
2021/09/20 07:08:23;;;;;;;11.30;9.43;;;21.60;99.90;;;;;;5113825;28;20499;-67
2021/09/20 07:10:48;;;;;;;13.15;9.73;;;21.70;99.90;;;;;;5113721;28;20024;-67
2021/09/20 07:13:14;;;;;;;11.60;9.65;;;21.70;99.90;;;;;;5113844;28;20031;-69
2021/09/20 07:15:39;;;;;;;9.98;8.30;;;21.60;99.90;;;;;;5124850;27;20030;-66
2021/09/20 07:18:05;;;;;;;11.55;8.15;;;21.70;99.90;;;;;;5134592;27;20019;-65
2021/09/20 07:20:32;;;;;;;10.93;8.23;;;21.70;99.90;;;;;;5134684;27;20052;-65
2021/09/20 07:22:58;;;;;;;11.07;8.43;;;21.60;99.90;;;;;;5133827;27;20474;-67
2021/09/20 07:25:23;;;;;;;11.25;9.15;;;21.70;99.90;;;;;;5134416;27;20098;-66
2021/09/20 07:27:49;;;;;;;16.20;9.10;;;21.70;99.90;;;;;;5133894;27;20042;-67
2021/09/20 07:30:17;;;;;;;10.45;8.88;;;21.60;99.90;;;;;;5134066;27;20055;-66
2021/09/20 07:32:44;;;;;;;11.30;8.77;;;21.70;99.90;;;;;;5134037;27;20095;-65
2021/09/20 07:35:11;;;;;;;13.27;10.13;;;21.70;99.90;;;;;;5133199;27;20027;-65
2021/09/20 07:37:36;;;;;;;13.90;10.52;;;21.70;99.90;;;;;;5132375;27;20031;-65
2021/09/20 07:40:03;;;;;;;13.55;10.65;;;21.70;99.90;;;;;;5134133;27;20019;-66
2021/09/20 07:42:29;;;;;;;17.23;11.15;;;21.80;99.90;;;;;;5133812;27;20034;-68
2021/09/20 07:44:54;;;;;;;15.25;11.15;;;21.80;99.90;;;;;;5133467;27;20031;-67
2021/09/20 07:47:20;;;;;;;17.08;11.60;;;21.80;99.90;;;;;;5133866;27;20387;-67
2021/09/20 07:49:46;;;;;;;17.13;11.95;;;21.80;99.90;;;;;;5133279;27;20386;-67
2021/09/20 07:52:11;;;;;;;17.15;12.13;;;21.90;99.90;;;;;;5133583;27;20042;-68
2021/09/20 07:54:38;;;;;;;16.25;12.25;;;21.90;99.90;;;;;;5133396;27;20019;-67
2021/09/20 07:57:03;;;;;;;14.27;11.73;;;21.90;99.90;;;;;;5133745;27;20462;-66
2021/09/20 07:59:29;;;;;;;16.92;12.05;;;22.00;99.90;;;;;;5131339;27;20068;-66
2021/09/20 08:01:55;;;;;;;16.92;12.13;;;21.90;99.90;;;;;;5133318;27;20031;-65
2021/09/20 08:04:20;;;;;;;17.52;12.43;;;22.00;99.90;;;;;;5133395;27;20459;-66
2021/09/20 08:06:46;;;;;;;19.15;13.15;;;22.00;99.90;;;;;;5132971;27;20031;-67
2021/09/20 08:09:11;;;;;;;19.73;12.75;;;22.10;99.90;;;;;;5132037;27;20055;-66
2021/09/20 08:11:37;;;;;;;18.30;12.27;;;22.10;99.90;;;;;;5131584;27;20031;-66
2021/09/20 08:14:03;;;;;;;15.68;11.85;;;22.10;99.90;;;;;;5133102;27;20115;-66
2021/09/20 08:16:28;;;;;;;13.88;9.50;;;22.10;99.90;;;;;;5133158;27;20076;-68
2021/09/20 08:18:54;;;;;;;16.63;11.32;;;22.10;99.90;;;;;;5130970;27;20068;-65
2021/09/20 08:21:19;;;;;;;17.23;11.93;;;22.10;99.90;;;;;;5133137;27;20481;-67
2021/09/20 08:23:45;;;;;;;19.00;12.82;;;22.20;99.90;;;;;;5132753;27;20020;-66
2021/09/20 08:26:11;;;;;;;18.17;12.32;;;22.20;99.90;;;;;;5130929;27;20019;-67
2021/09/20 08:28:37;;;;;;;19.17;13.07;;;22.20;99.90;;;;;;5132334;27;20031;-67
2021/09/20 08:31:02;;;;;;;17.30;11.27;;;22.20;99.90;;;;;;5133185;27;20477;-65
2021/09/20 08:33:29;;;;;;;17.75;11.93;;;22.30;99.90;;;;;;5130756;27;20029;-66
2021/09/20 08:35:55;;;;;;;17.83;11.90;;;22.30;99.90;;;;;;5132628;27;20034;-66
2021/09/20 08:38:21;;;;;;;17.23;12.05;;;22.30;99.90;;;;;;5132832;27;20035;-67
2021/09/20 08:40:46;;;;;;;17.25;11.68;;;22.30;99.90;;;;;;5132425;27;20019;-67
2021/09/20 08:43:12;;;;;;;15.05;10.35;;;22.30;99.90;;;;;;5113736;28;20028;-68
2021/09/20 08:45:38;;;;;;;12.43;8.55;;;22.30;99.90;;;;;;5111949;28;20019;-67
2021/09/20 08:48:04;;;;;;;12.38;8.73;;;22.40;99.90;;;;;;5110681;28;20056;-67
2021/09/20 08:50:37;;;;;;;12.77;8.73;;;22.40;99.90;;;;;;5112027;28;20482;-67
2021/09/20 08:53:05;;;;;;;16.00;10.85;;;22.40;99.90;;;;;;5112462;28;20039;-67
2021/09/20 08:55:32;;;;;;;15.23;10.93;;;22.50;99.90;;;;;;5112100;28;20081;-67
2021/09/20 08:57:59;;;;;;;14.98;10.35;;;22.50;99.90;;;;;;5111780;28;20019;-66
2021/09/20 09:00:25;;;;;;;13.23;10.02;;;22.50;99.90;;;;;;5111951;28;20020;-66
2021/09/20 09:02:51;;;;;;;13.35;10.30;;;22.50;99.90;;;;;;5123811;28;20035;-66
2021/09/20 09:05:21;;;;;;;14.93;10.07;;;22.50;99.90;;;;;;5132192;27;20095;-66
2021/09/20 09:07:56;;;;;;;14.38;9.20;;;22.50;99.90;;;;;;5131791;27;20031;-65
2021/09/20 09:10:25;;;;;;;12.90;9.35;;;22.50;99.90;;;;;;5132388;27;20108;-67
2021/09/20 09:12:52;;;;;;;13.35;9.98;;;22.50;99.90;;;;;;5132383;27;20589;-67
2021/09/20 09:15:22;;;;;;;12.90;9.75;;;22.60;99.90;;;;;;5132494;28;20038;-68
2021/09/20 09:17:52;;;;;;;17.13;10.68;;;22.60;99.90;;;;;;5112911;27;20110;-67
2021/09/20 09:20:28;;;;;;;15.10;10.13;;;22.60;99.90;;;;;;5112066;28;20016;-66
2021/09/20 09:22:58;;;;;;;14.05;9.75;;;22.60;99.90;;;;;;5110461;28;20023;-67
2021/09/20 09:25:25;;;;;;;15.18;9.80;;;22.60;99.90;;;;;;5111942;28;20451;-67
2021/09/20 09:27:56;;;;;;;15.32;10.40;;;22.60;99.90;;;;;;5111510;28;20036;-67
2021/09/20 09:30:23;;;;;;;16.58;10.82;;;22.60;99.90;;;;;;5111863;28;20402;-67
2021/09/20 09:33:21;;;;;;;16.08;10.98;;;22.60;99.90;;;;;;5111633;28;20027;-67
2021/09/20 09:35:56;;;;;;;16.65;10.52;;;22.60;99.90;;;;;;5111437;28;20012;-67
2021/09/20 09:38:22;;;;;;;17.85;11.57;;;22.60;99.90;;;;;;5111885;28;20057;-66
2021/09/20 09:40:57;;;;;;;17.33;11.10;;;22.70;99.90;;;;;;5111696;28;20019;-66
2021/09/20 09:43:34;;;;;;;19.33;11.77;;;22.70;99.90;;;;;;5111625;28;20507;-66
2021/09/20 09:46:16;;;;;;;20.27;13.43;;;22.70;99.90;;;;;;5111418;28;20383;-66
2021/09/20 09:48:44;;;;;;;20.73;13.07;;;22.70;99.90;;;;;;5111271;28;20039;-67
2021/09/20 09:51:09;;;;;;;20.30;12.57;;;22.70;99.90;;;;;;5111539;28;20468;-67
2021/09/20 09:53:38;;;;;;;19.90;12.95;;;22.70;99.90;;;;;;5111963;28;20088;-67
2021/09/20 09:56:17;;;;;;;18.02;12.15;;;22.70;99.90;;;;;;5111996;28;20020;-67
2021/09/20 09:59:04;;;;;;;19.02;12.50;;;22.70;99.90;;;;;;5111244;28;20471;-68
2021/09/20 10:01:34;;;;;;;18.92;12.02;;;22.80;99.90;;;;;;5115237;27;20479;-67
2021/09/20 10:04:24;;;;;;;19.40;13.10;;;22.80;99.90;;;;;;5115011;27;20413;-67
2021/09/20 10:06:55;;;;;;;19.40;12.82;;;22.80;99.90;;;;;;5114657;28;20038;-67
2021/09/20 10:09:28;;;;;;;21.33;13.23;;;22.80;99.90;;;;;;5115364;28;20024;-67
2021/09/20 10:11:56;;;;;;;19.85;12.77;;;22.80;99.90;;;;;;5115177;28;20069;-67
2021/09/20 10:14:23;;;;;;;23.35;14.18;;;22.80;99.90;;;;;;5115226;28;20114;-67
2021/09/20 10:16:52;;;;;;;21.75;13.68;;;22.80;99.90;;;;;;5114886;28;20463;-67
2021/09/20 10:19:19;;;;;;;22.13;14.57;;;22.80;99.90;;;;;;5115045;28;20035;-69
2021/09/20 10:21:45;;;;;;;21.67;14.32;;;22.80;99.90;;;;;;5115850;27;20387;-68
2021/09/20 10:24:11;;;;;;;20.40;13.32;;;22.80;99.90;;;;;;5115096;28;20106;-67
2021/09/20 10:26:36;;;;;;;20.90;13.07;;;22.80;99.90;;;;;;5114781;28;20153;-67
2021/09/20 10:29:04;;;;;;;18.45;12.68;;;22.90;99.90;;;;;;5115021;28;20031;-68
2021/09/20 10:31:33;;;;;;;19.35;12.82;;;22.90;99.90;;;;;;5114703;28;20030;-67
2021/09/20 10:34:20;;;;;;;20.73;13.60;;;22.90;99.90;;;;;;5114898;27;20027;-67
2021/09/20 10:37:01;;;;;;;21.25;13.48;;;22.90;99.90;;;;;;5131712;27;20027;-68
2021/09/20 10:39:46;;;;;;;19.90;13.05;;;22.90;99.90;;;;;;5124603;27;20027;-66
2021/09/20 10:42:47;;;;;;;19.85;12.75;;;22.90;99.90;;;;;;5115586;27;20024;-67
2021/09/20 10:45:42;;;;;;;20.63;13.25;;;22.90;99.90;;;;;;5114671;28;20380;-67
2021/09/20 10:48:27;;;;;;;21.48;13.40;;;22.90;99.90;;;;;;5114508;28;20035;-67
2021/09/20 10:51:10;;;;;;;21.25;13.93;;;22.90;99.90;;;;;;5114189;28;20421;-67
2021/09/20 10:53:36;;;;;;;18.55;12.02;;;22.90;99.90;;;;;;5123345;27;20027;-68
2021/09/20 10:56:07;;;;;;;18.23;13.05;;;22.90;99.90;;;;;;5135043;27;20402;-67
2021/09/20 10:58:40;;;;;;;20.50;13.27;;;23.00;99.90;;;;;;5135204;27;20023;-67
2021/09/20 11:01:12;;;;;;;18.15;12.82;;;22.90;99.90;;;;;;5134757;27;20019;-67
2021/09/20 11:03:41;;;;;;;20.35;13.02;;;22.90;99.90;;;;;;5134264;27;20023;-67
2021/09/20 11:06:21;;;;;;;19.02;12.77;;;22.90;99.90;;;;;;5134656;27;20121;-67
2021/09/20 11:08:47;;;;;;;21.15;13.27;;;22.90;99.90;;;;;;5134489;27;20062;-67
2021/09/20 11:11:35;;;;;;;18.00;12.20;;;22.90;99.90;;;;;;5132069;27;20139;-67
2021/09/20 11:14:09;;;;;;;17.95;11.73;;;22.90;99.90;;;;;;5113887;28;20032;-67
2021/09/20 11:16:55;;;;;;;19.23;12.23;;;22.90;99.90;;;;;;5114245;28;20019;-67
2021/09/20 11:19:31;;;;;;;18.80;12.48;;;22.90;99.90;;;;;;5113724;28;20051;-67
2021/09/20 11:22:06;;;;;;;15.85;11.40;;;22.90;99.90;;;;;;5113401;27;20451;-67
2021/09/20 11:24:45;;;;;;;15.77;11.02;;;22.90;99.90;;;;;;5113783;28;20028;-67
2021/09/20 11:27:23;;;;;;;16.27;11.02;;;22.90;99.90;;;;;;5113681;28;20036;-67
2021/09/20 11:29:51;;;;;;;15.55;10.57;;;22.90;99.90;;;;;;5113218;28;20046;-67
2021/09/20 11:32:16;;;;;;;14.57;10.45;;;22.90;99.90;;;;;;5113343;28;20030;-67
2021/09/20 11:34:48;;;;;;;14.23;10.23;;;22.90;99.90;;;;;;5113130;28;20375;-68
2021/09/20 11:37:21;;;;;;;15.07;10.45;;;22.90;99.90;;;;;;5113284;28;20031;-68
2021/09/20 11:39:51;;;;;;;;;;;22.90;99.90;;;;;;5113537;28;20018;-67
2021/09/20 11:42:19;;;;;;;14.05;10.77;;;22.80;99.90;;;;;;5113303;28;19904;-68
2021/09/20 11:44:58;;;;;;;14.85;9.77;;;22.80;99.90;;;;;;5125782;27;20392;-67
2021/09/20 11:47:28;;;;;;;13.43;9.48;;;22.80;99.90;;;;;;5133282;27;20023;-67
2021/09/20 11:50:08;;;;;;;12.75;9.07;;;22.80;99.90;;;;;;5133471;27;20084;-68
2021/09/20 11:52:40;;;;;;;11.38;8.38;;;22.80;99.90;;;;;;5133846;27;20024;-67
2021/09/20 11:55:19;;;;;;;11.23;8.63;;;22.80;99.90;;;;;;5133379;27;20026;-67
2021/09/20 11:57:49;;;;;;;12.75;8.68;;;22.80;99.90;;;;;;5132391;27;20486;-67
2021/09/20 12:00:18;;;;;;;12.40;8.07;;;22.80;99.90;;;;;;5133216;27;20030;-67
2021/09/20 12:02:53;;;;;;;12.27;8.60;;;22.80;99.90;;;;;;5132700;27;20024;-66
2021/09/20 12:05:35;;;;;;;11.55;7.82;;;22.80;99.90;;;;;;5133568;27;20114;-68
2021/09/20 12:08:06;;;;;;;10.40;8.18;;;22.80;99.90;;;;;;5133166;27;20126;-68
2021/09/20 12:10:43;;;;;;;9.90;7.53;;;22.80;99.90;;;;;;5133756;27;20458;-68
2021/09/20 12:13:15;;;;;;;9.82;7.10;;;22.80;99.90;;;;;;5133590;27;20496;-67
2021/09/20 12:15:44;;;;;;;10.82;7.40;;;22.80;99.90;;;;;;5132132;27;20407;-68
2021/09/20 12:18:23;;;;;;;8.95;7.35;;;22.90;99.90;;;;;;5132494;27;20035;-66
2021/09/20 12:20:52;;;;;;;8.80;7.05;;;22.80;99.90;;;;;;5132758;27;20027;-67
2021/09/20 12:23:19;;;;;;;10.23;7.00;;;22.90;99.90;;;;;;5132392;27;20031;-68
2021/09/20 12:25:53;;;;;;;10.05;7.55;;;22.90;99.90;;;;;;5132947;27;20027;-67
2021/09/20 12:28:37;;;;;;;8.70;6.88;;;22.90;99.90;;;;;;5133370;27;20030;-67
2021/09/20 12:31:07;;;;;;;;;;;22.90;99.90;;;;;;5133842;27;20019;-67
2021/09/20 12:33:50;;;;;;;8.10;6.10;;;22.90;99.90;;;;;;5133398;27;19903;-68
2021/09/20 12:36:33;;;;;;;7.30;6.38;;;22.90;99.90;;;;;;5131229;27;20034;-68
2021/09/20 12:39:27;;;;;;;9.07;6.80;;;22.90;99.90;;;;;;5131080;27;20513;-67
2021/09/20 12:41:58;;;;;;;9.05;6.15;;;23.00;99.90;;;;;;5112377;28;20067;-61
2021/09/20 12:44:34;;;;;;;8.15;5.80;;;23.00;99.90;;;;;;5112507;28;20070;-62